createdAt,value
2022-12-25T00:02:02.538Z,101342.69
2022-12-25T00:07:24.229Z,101338.44
2022-12-25T00:12:45.971Z,101348.13
2022-12-25T00:18:07.677Z,101336.41
2022-12-25T00:23:30.361Z,101334.72
2022-12-25T00:28:54.038Z,101329.66
2022-12-25T00:34:15.820Z,101330.16
2022-12-25T00:39:37.626Z,101326.78
2022-12-25T00:45:01.609Z,101319.53
2022-12-25T00:50:23.363Z,101320.00
2022-12-25T00:55:50.269Z,101318.31
2022-12-25T01:01:12.092Z,101321.34
2022-12-25T01:06:33.844Z,101297.72
2022-12-25T01:11:55.704Z,101306.03
2022-12-25T01:17:17.396Z,101307.34
2022-12-25T01:22:39.154Z,101310.38
2022-12-25T01:28:00.887Z,101318.09
2022-12-25T01:33:22.766Z,101320.25
2022-12-25T01:38:45.455Z,101333.91
2022-12-25T01:44:16.054Z,101324.13
2022-12-25T01:49:40.497Z,101342.94
2022-12-25T01:55:04.341Z,101345.94
2022-12-25T02:00:26.070Z,101351.75
2022-12-25T02:05:48.177Z,101353.31
2022-12-25T02:11:32.925Z,101365.25
2022-12-25T02:17:07.351Z,101362.72
2022-12-25T02:22:53.574Z,101370.19
2022-12-25T02:28:21.866Z,101363.41
2022-12-25T02:34:05.113Z,101361.50
2022-12-25T02:39:59.645Z,101358.94
2022-12-25T02:45:50.991Z,101370.28
2022-12-25T02:51:35.619Z,101356.88
2022-12-25T02:57:20.797Z,101334.69
2022-12-25T03:03:02.938Z,101310.22
2022-12-25T03:08:30.753Z,101318.53
2022-12-25T03:14:16.635Z,101292.13
2022-12-25T03:19:57.114Z,101282.97
2022-12-25T03:25:38.728Z,101287.91
2022-12-25T03:31:17.348Z,101267.44
2022-12-25T03:37:03.380Z,101266.81
2022-12-25T03:43:03.682Z,101266.22
2022-12-25T03:48:46.435Z,101253.44
2022-12-25T03:54:29.964Z,101238.94
2022-12-25T04:00:10.263Z,101242.81
2022-12-25T04:05:50.596Z,101233.91
2022-12-25T04:11:30.672Z,101228.59
2022-12-25T04:17:11.220Z,101229.66
2022-12-25T04:22:52.414Z,101248.47
2022-12-25T04:28:32.405Z,101250.41
2022-12-25T04:34:12.724Z,101249.81
2022-12-25T04:39:34.626Z,101244.50
2022-12-25T04:44:56.344Z,101247.28
2022-12-25T04:50:18.193Z,101251.97
2022-12-25T04:55:39.931Z,101248.38
2022-12-25T05:01:03.621Z,101241.13
2022-12-25T05:06:25.305Z,101233.91
2022-12-25T05:11:47.122Z,101215.81
2022-12-25T05:17:08.785Z,101216.66
2022-12-25T05:22:30.524Z,101219.69
2022-12-25T05:27:54.156Z,101206.91
2022-12-25T05:33:16.013Z,101205.22
2022-12-25T05:38:38.067Z,101199.66
2022-12-25T05:43:59.769Z,101190.75
2022-12-25T05:49:21.481Z,101177.97
2022-12-25T05:54:43.326Z,101175.44
2022-12-25T06:00:06.407Z,101165.19
2022-12-25T06:05:28.170Z,101162.69
2022-12-25T06:10:49.865Z,101154.63
2022-12-25T06:16:12.980Z,101129.69
2022-12-25T06:21:34.756Z,101117.97
2022-12-25T06:26:56.471Z,101091.34
2022-12-25T06:32:18.192Z,101075.81
2022-12-25T06:37:39.946Z,101074.13
2022-12-25T06:43:01.791Z,101057.00
2022-12-25T06:48:23.573Z,101059.41
2022-12-25T06:53:46.077Z,101071.25
2022-12-25T06:59:10.255Z,101067.47
2022-12-25T07:04:43.122Z,101081.34
2022-12-25T07:10:05.143Z,101069.50
2022-12-25T07:15:26.881Z,101077.50
2022-12-25T07:20:48.556Z,101065.88
2022-12-25T07:26:11.738Z,101065.28
2022-12-25T07:31:33.482Z,101067.66
2022-12-25T07:36:55.246Z,101093.38
2022-12-25T07:42:21.732Z,101113.47
2022-12-25T07:47:46.528Z,101140.22
2022-12-25T07:53:08.491Z,101143.41
2022-12-25T07:58:30.892Z,101152.63
2022-12-25T08:03:55.113Z,101144.72
2022-12-25T08:09:16.876Z,101144.50
2022-12-25T08:14:38.689Z,101144.91
2022-12-25T08:20:00.408Z,101170.28
2022-12-25T08:25:22.212Z,101192.97
2022-12-25T08:30:43.903Z,101177.88
2022-12-25T08:36:10.281Z,101169.00
2022-12-25T08:41:32.321Z,101158.72
2022-12-25T08:46:54.034Z,101141.44
2022-12-25T08:52:16.645Z,101142.50
2022-12-25T08:57:38.339Z,101112.81
2022-12-25T09:03:00.261Z,101127.94
2022-12-25T09:08:22.335Z,101139.16
2022-12-25T09:13:44.432Z,101124.16
2022-12-25T09:19:06.172Z,101129.84
2022-12-25T09:24:27.937Z,101120.41
2022-12-25T09:29:49.908Z,101119.31
2022-12-25T09:35:11.763Z,101120.47
2022-12-25T09:40:33.598Z,101095.50
2022-12-25T09:45:56.579Z,101082.00
2022-12-25T09:51:19.096Z,101067.88
2022-12-25T09:56:40.822Z,101064.34
2022-12-25T10:02:21.421Z,101062.47
2022-12-25T10:07:43.455Z,101076.47
2022-12-25T10:13:07.872Z,101076.16
2022-12-25T10:18:38.903Z,101054.59
2022-12-25T10:24:33.417Z,101051.63
2022-12-25T10:29:55.192Z,101048.63
2022-12-25T10:35:20.243Z,101034.25
2022-12-25T10:41:00.370Z,101024.31
2022-12-25T10:46:24.552Z,101011.91
2022-12-25T10:51:46.280Z,101026.75
2022-12-25T10:57:10.931Z,101030.47
2022-12-25T11:02:40.974Z,101005.06
2022-12-25T11:08:03.744Z,101000.22
2022-12-25T11:13:28.201Z,100977.28
2022-12-25T11:18:52.601Z,100967.19
2022-12-25T11:24:22.531Z,100963.50
2022-12-25T11:29:49.409Z,100945.94
2022-12-25T11:35:14.237Z,100954.16
2022-12-25T11:40:40.537Z,100958.47
2022-12-25T11:46:18.559Z,100945.03
2022-12-25T11:51:44.056Z,100945.53
2022-12-25T11:57:07.309Z,100946.19
2022-12-25T12:02:39.842Z,100931.03
2022-12-25T12:08:07.278Z,100935.06
2022-12-25T12:13:31.946Z,100939.28
2022-12-25T12:18:53.685Z,100919.84
2022-12-25T12:24:22.471Z,100901.56
2022-12-25T12:29:46.196Z,100903.25
2022-12-25T12:35:19.160Z,100911.09
2022-12-25T12:40:51.206Z,100906.63
2022-12-25T12:46:31.607Z,100888.78
2022-12-25T12:52:04.867Z,100884.28
2022-12-25T12:57:32.977Z,100860.81
2022-12-25T13:03:13.372Z,100852.41
2022-12-25T13:09:06.724Z,100856.22
2022-12-25T13:14:28.556Z,100841.66
2022-12-25T13:20:01.203Z,100836.63
2022-12-25T13:25:24.147Z,100830.16
2022-12-25T13:30:47.291Z,100818.16
2022-12-25T13:36:14.311Z,100823.97
2022-12-25T13:42:06.115Z,100808.72
2022-12-25T13:47:31.294Z,100799.91
2022-12-25T13:52:54.670Z,100789.13
2022-12-25T13:58:30.401Z,100798.13
2022-12-25T14:03:52.557Z,100791.22
2022-12-25T14:09:15.333Z,100800.72
2022-12-25T14:14:37.587Z,100788.84
2022-12-25T14:20:07.570Z,100797.50
2022-12-25T14:25:44.113Z,100782.53
2022-12-25T14:31:05.877Z,100784.72
2022-12-25T14:36:28.056Z,100795.00
2022-12-25T14:41:54.351Z,100790.78
2022-12-25T14:47:18.668Z,100772.91
2022-12-25T14:52:44.752Z,100781.13
2022-12-25T14:58:08.262Z,100790.50
2022-12-25T15:03:32.944Z,100785.44
2022-12-25T15:09:01.176Z,100798.13
2022-12-25T15:14:24.200Z,100788.66
2022-12-25T15:19:45.965Z,100776.38
2022-12-25T15:25:14.290Z,100790.94
2022-12-25T15:30:39.421Z,100789.47
2022-12-25T15:36:01.284Z,100793.03
2022-12-25T15:41:46.369Z,100791.63
2022-12-25T15:47:12.436Z,100778.56
2022-12-25T15:52:34.143Z,100770.94
2022-12-25T15:57:55.921Z,100771.34
2022-12-25T16:03:17.719Z,100772.69
2022-12-25T16:08:40.127Z,100779.00
2022-12-25T16:14:01.841Z,100773.03
2022-12-25T16:19:23.599Z,100781.72
2022-12-25T16:24:45.655Z,100787.25
2022-12-25T16:30:08.189Z,100802.75
2022-12-25T16:35:29.964Z,100788.34
2022-12-25T16:40:57.264Z,100789.19
2022-12-25T16:46:21.732Z,100791.91
2022-12-25T16:51:44.217Z,100802.41
2022-12-25T16:57:05.967Z,100802.59
2022-12-25T17:02:28.009Z,100801.16
2022-12-25T17:07:49.909Z,100794.34
2022-12-25T17:13:11.733Z,100791.81
2022-12-25T17:18:33.450Z,100791.75
2022-12-25T17:24:01.681Z,100793.38
2022-12-25T17:29:25.276Z,100799.72
2022-12-25T17:34:47.351Z,100796.03
2022-12-25T17:40:09.672Z,100784.63
2022-12-25T17:45:31.391Z,100772.09
2022-12-25T17:50:53.113Z,100766.78
2022-12-25T17:56:16.590Z,100777.31
2022-12-25T18:01:40.144Z,100784.22
2022-12-25T18:07:03.513Z,100794.75
2022-12-25T18:12:25.268Z,100801.41
2022-12-25T18:17:47.173Z,100802.78
2022-12-25T18:23:09.425Z,100807.50
2022-12-25T18:28:31.346Z,100814.38
2022-12-25T18:33:54.095Z,100822.97
2022-12-25T18:39:15.868Z,100810.69
2022-12-25T18:44:37.686Z,100806.81
2022-12-25T18:49:59.446Z,100809.34
2022-12-25T18:55:21.467Z,100809.34
2022-12-25T19:00:43.259Z,100798.00
2022-12-25T19:06:05.234Z,100792.44
2022-12-25T19:11:27.079Z,100815.25
2022-12-25T19:16:49.317Z,100808.84
2022-12-25T19:22:11.128Z,100823.56
2022-12-25T19:27:32.872Z,100812.47
2022-12-25T19:32:54.596Z,100805.81
2022-12-25T19:38:16.517Z,100822.47
2022-12-25T19:43:40.301Z,100813.06
2022-12-25T19:49:04.514Z,100798.81
2022-12-25T19:54:26.463Z,100819.88
2022-12-25T19:59:49.624Z,100829.00
2022-12-25T20:05:11.658Z,100839.03
2022-12-25T20:10:33.406Z,100843.53
2022-12-25T20:16:01.103Z,100841.31
2022-12-25T20:21:24.306Z,100834.09
2022-12-25T20:26:47.907Z,100826.34
2022-12-25T20:32:10.532Z,100824.47
2022-12-25T20:37:32.378Z,100831.75
2022-12-25T20:42:54.085Z,100823.50
2022-12-25T20:48:15.769Z,100841.34
2022-12-25T20:53:38.039Z,100828.59
2022-12-25T20:59:00.730Z,100840.88
2022-12-25T21:04:22.496Z,100854.47
2022-12-25T21:09:44.438Z,100877.03
2022-12-25T21:15:11.666Z,100877.03
2022-12-25T21:20:37.203Z,100875.09
2022-12-25T21:25:58.910Z,100893.38
2022-12-25T21:31:21.382Z,100893.66
2022-12-25T21:36:43.221Z,100893.06
2022-12-25T21:42:05.567Z,100895.25
2022-12-25T21:47:27.273Z,100908.56
2022-12-25T21:53:09.353Z,100914.38
2022-12-25T21:58:31.315Z,100907.41
2022-12-25T22:03:53.023Z,100898.22
2022-12-25T22:09:15.015Z,100892.09
2022-12-25T22:14:55.433Z,100897.63
2022-12-25T22:20:24.216Z,100907.09
2022-12-25T22:25:45.918Z,100904.25
2022-12-25T22:31:07.886Z,100914.16
2022-12-25T22:36:29.635Z,100915.81
2022-12-25T22:41:51.393Z,100927.66
2022-12-25T22:47:13.134Z,100928.16
2022-12-25T22:52:35.028Z,100948.91
2022-12-25T22:57:56.834Z,100933.88
2022-12-25T23:03:18.604Z,100935.25
2022-12-25T23:08:40.405Z,100939.63
2022-12-25T23:14:20.987Z,100940.88
2022-12-25T23:20:01.024Z,100934.91
2022-12-25T23:25:41.683Z,100940.13
2022-12-25T23:31:03.718Z,100942.31
2022-12-25T23:36:25.943Z,100928.09
2022-12-25T23:41:47.950Z,100948.88
2022-12-25T23:47:10.053Z,100945.53
2022-12-25T23:52:31.912Z,100956.03
2022-12-25T23:57:53.686Z,100962.94
